createdAt,value
2022-09-18T00:01:32.485Z,12.88
2022-09-18T00:05:36.257Z,12.89
2022-09-18T00:09:38.286Z,12.92
2022-09-18T00:13:40.855Z,12.91
2022-09-18T00:17:42.339Z,12.91
2022-09-18T00:21:46.408Z,12.89
2022-09-18T00:25:47.902Z,12.91
2022-09-18T00:29:49.365Z,12.91
2022-09-18T00:33:51.488Z,12.85
2022-09-18T00:37:53.038Z,12.84
2022-09-18T00:41:54.593Z,12.84
2022-09-18T00:46:21.725Z,12.79
2022-09-18T00:50:26.865Z,12.81
2022-09-18T00:54:37.203Z,12.81
2022-09-18T00:58:40.429Z,12.80
2022-09-18T01:02:44.330Z,12.84
2022-09-18T01:06:57.615Z,12.84
2022-09-18T01:11:27.984Z,12.81
2022-09-18T01:15:49.048Z,12.80
2022-09-18T01:20:28.518Z,12.84
2022-09-18T01:24:45.722Z,12.87
2022-09-18T01:29:02.883Z,12.85
2022-09-18T01:33:10.606Z,12.81
2022-09-18T01:37:21.037Z,12.81
2022-09-18T01:41:25.663Z,12.81
2022-09-18T01:45:34.750Z,12.81
2022-09-18T01:49:42.915Z,12.84
2022-09-18T01:53:49.486Z,12.77
2022-09-18T01:57:56.255Z,12.77
2022-09-18T02:02:01.121Z,12.74
2022-09-18T02:06:12.335Z,12.77
2022-09-18T02:10:13.968Z,12.81
2022-09-18T02:14:34.863Z,12.79
2022-09-18T02:18:57.983Z,12.84
2022-09-18T02:23:04.656Z,12.85
2022-09-18T02:27:09.367Z,12.77
2022-09-18T02:31:12.937Z,12.77
2022-09-18T02:35:15.404Z,12.79
2022-09-18T02:39:30.902Z,12.76
2022-09-18T02:43:40.060Z,12.70
2022-09-18T02:48:12.684Z,12.73
2022-09-18T02:52:22.496Z,12.74
2022-09-18T02:56:49.373Z,12.73
2022-09-18T03:00:51.927Z,12.71
2022-09-18T03:04:57.406Z,12.69
2022-09-18T03:09:08.931Z,12.67
2022-09-18T03:13:11.020Z,12.63
2022-09-18T03:17:12.943Z,12.66
2022-09-18T03:21:14.759Z,12.66
2022-09-18T03:25:16.472Z,12.66
2022-09-18T03:29:18.041Z,12.67
2022-09-18T03:33:19.743Z,12.66
2022-09-18T03:37:21.255Z,12.69
2022-09-18T03:41:24.221Z,12.69
2022-09-18T03:45:26.284Z,12.63
2022-09-18T03:49:28.932Z,12.58
2022-09-18T03:53:30.925Z,12.58
2022-09-18T03:58:01.363Z,12.56
2022-09-18T04:02:16.788Z,12.56
2022-09-18T04:06:36.925Z,12.55
2022-09-18T04:11:05.145Z,12.49
2022-09-18T04:15:08.895Z,12.44
2022-09-18T04:19:10.704Z,12.44
2022-09-18T04:23:14.413Z,12.41
2022-09-18T04:27:16.400Z,12.38
2022-09-18T04:31:18.196Z,12.38
2022-09-18T04:35:20.445Z,12.43
2022-09-18T04:39:22.523Z,12.46
2022-09-18T04:43:24.806Z,12.46
2022-09-18T04:47:26.517Z,12.49
2022-09-18T04:51:28.146Z,12.49
2022-09-18T04:55:29.976Z,12.46
2022-09-18T04:59:31.533Z,12.48
2022-09-18T05:03:34.220Z,12.44
2022-09-18T05:07:35.985Z,12.38
2022-09-18T05:11:37.537Z,12.41
2022-09-18T05:15:40.475Z,12.40
2022-09-18T05:19:43.670Z,12.37
2022-09-18T05:23:55.479Z,12.38
2022-09-18T05:27:59.185Z,12.38
2022-09-18T05:32:04.571Z,12.37
2022-09-18T05:36:09.547Z,12.40
2022-09-18T05:40:11.587Z,12.41
2022-09-18T05:44:13.215Z,12.41
2022-09-18T05:48:14.885Z,12.43
2022-09-18T05:52:16.529Z,12.46
2022-09-18T05:56:18.587Z,12.49
2022-09-18T06:00:20.730Z,12.52
2022-09-18T06:04:22.207Z,12.55
2022-09-18T06:08:28.438Z,12.56
2022-09-18T06:12:30.011Z,12.58
2022-09-18T06:16:31.639Z,12.58
2022-09-18T06:20:38.237Z,12.59
2022-09-18T06:24:40.067Z,12.59
2022-09-18T06:28:44.326Z,12.59
2022-09-18T06:32:46.148Z,12.70
2022-09-18T06:36:47.983Z,12.81
2022-09-18T06:41:01.565Z,12.87
2022-09-18T06:45:16.855Z,12.87
2022-09-18T06:49:21.689Z,12.87
2022-09-18T06:53:24.231Z,12.88
2022-09-18T06:57:32.015Z,12.96
2022-09-18T07:01:33.765Z,13.06
2022-09-18T07:05:45.601Z,13.13
2022-09-18T07:09:56.928Z,13.24
2022-09-18T07:14:01.995Z,13.32
2022-09-18T07:18:05.303Z,13.43
2022-09-18T07:22:06.941Z,13.50
2022-09-18T07:26:14.218Z,13.44
2022-09-18T07:30:16.533Z,13.47
2022-09-18T07:34:18.635Z,13.50
2022-09-18T07:38:20.155Z,13.55
2022-09-18T07:42:30.600Z,13.55
2022-09-18T07:46:32.309Z,13.54
2022-09-18T07:50:38.075Z,13.57
2022-09-18T07:54:39.800Z,13.76
2022-09-18T07:58:47.730Z,13.88
2022-09-18T08:03:11.713Z,13.94
2022-09-18T08:07:34.401Z,14.02
2022-09-18T08:12:04.872Z,13.98
2022-09-18T08:16:25.943Z,14.02
2022-09-18T08:20:44.947Z,14.06
2022-09-18T08:25:04.036Z,14.17
2022-09-18T08:29:06.536Z,14.17
2022-09-18T08:33:09.101Z,14.26
2022-09-18T08:37:11.060Z,14.31
2022-09-18T08:42:05.825Z,14.36
2022-09-18T08:46:52.694Z,14.38
2022-09-18T08:51:02.066Z,14.41
2022-09-18T08:55:22.539Z,14.44
2022-09-18T09:00:01.608Z,14.53
2022-09-18T09:04:22.700Z,14.61
2022-09-18T09:08:43.380Z,14.85
2022-09-18T09:13:13.608Z,14.94
2022-09-18T09:17:33.816Z,15.07
2022-09-18T09:21:48.200Z,15.11
2022-09-18T09:26:02.947Z,15.28
2022-09-18T09:30:23.226Z,15.44
2022-09-18T09:35:17.967Z,15.60
2022-09-18T09:39:40.499Z,15.70
2022-09-18T09:43:56.210Z,15.66
2022-09-18T09:48:34.100Z,15.56
2022-09-18T09:52:37.897Z,15.49
2022-09-18T09:57:07.084Z,15.40
2022-09-18T10:01:40.521Z,15.38
2022-09-18T10:06:02.501Z,15.38
2022-09-18T10:10:22.764Z,15.35
2022-09-18T10:14:28.083Z,15.46
2022-09-18T10:18:33.793Z,15.60
2022-09-18T10:22:37.438Z,15.76
2022-09-18T10:26:46.464Z,15.88
2022-09-18T10:31:03.864Z,16.07
2022-09-18T10:35:30.152Z,16.18
2022-09-18T10:39:34.822Z,16.32
2022-09-18T10:43:55.496Z,16.37
2022-09-18T10:48:19.901Z,16.44
2022-09-18T10:52:34.857Z,16.55
2022-09-18T10:57:39.143Z,16.60
2022-09-18T11:01:44.903Z,16.54
2022-09-18T11:05:54.532Z,16.62
2022-09-18T11:09:56.309Z,16.66
2022-09-18T11:14:07.927Z,16.52
2022-09-18T11:18:26.422Z,16.52
2022-09-18T11:22:34.888Z,16.45
2022-09-18T11:26:49.412Z,16.34
2022-09-18T11:30:58.386Z,16.30
2022-09-18T11:35:05.140Z,16.22
2022-09-18T11:39:24.398Z,16.10
2022-09-18T11:43:30.839Z,16.03
2022-09-18T11:47:42.958Z,15.89
2022-09-18T11:51:55.670Z,15.81
2022-09-18T11:56:17.913Z,15.77
2022-09-18T12:00:23.018Z,15.68
2022-09-18T12:04:49.264Z,15.64
2022-09-18T12:09:15.146Z,15.73
2022-09-18T12:13:21.815Z,15.81
2022-09-18T12:17:40.095Z,15.93
2022-09-18T12:21:54.766Z,16.01
2022-09-18T12:26:19.309Z,16.11
2022-09-18T12:30:36.071Z,16.33
2022-09-18T12:34:59.400Z,16.50
2022-09-18T12:39:12.379Z,16.51
2022-09-18T12:43:33.153Z,16.45
2022-09-18T12:47:53.378Z,16.37
2022-09-18T12:52:18.595Z,16.40
2022-09-18T12:56:34.449Z,16.41
2022-09-18T13:00:38.810Z,16.32
2022-09-18T13:05:00.738Z,16.27
2022-09-18T13:09:12.109Z,16.16
2022-09-18T13:13:38.370Z,16.14
2022-09-18T13:17:46.732Z,16.18
2022-09-18T13:21:51.107Z,16.10
2022-09-18T13:25:54.003Z,16.01
2022-09-18T13:29:58.879Z,15.99
2022-09-18T13:34:06.466Z,16.03
2022-09-18T13:38:20.774Z,16.03
2022-09-18T13:42:29.687Z,15.91
2022-09-18T13:46:41.701Z,15.84
2022-09-18T13:51:07.098Z,15.85
2022-09-18T13:55:14.768Z,15.93
2022-09-18T13:59:43.025Z,15.99
2022-09-18T14:03:44.514Z,16.01
2022-09-18T14:07:54.551Z,15.96
2022-09-18T14:12:11.282Z,16.01
2022-09-18T14:16:18.802Z,15.95
2022-09-18T14:20:22.194Z,15.93
2022-09-18T14:24:48.710Z,15.91
2022-09-18T14:28:51.021Z,15.91
2022-09-18T14:33:15.902Z,15.92
2022-09-18T14:37:25.602Z,15.91
2022-09-18T14:41:32.997Z,15.92
2022-09-18T14:45:34.580Z,15.89
2022-09-18T14:49:44.030Z,15.88
2022-09-18T14:53:49.959Z,15.84
2022-09-18T14:58:01.437Z,15.81
2022-09-18T15:02:31.344Z,15.80
2022-09-18T15:06:49.761Z,15.76
2022-09-18T15:10:53.107Z,15.76
2022-09-18T15:14:54.591Z,15.74
2022-09-18T15:18:57.592Z,15.74
2022-09-18T15:22:59.148Z,15.73
2022-09-18T15:27:02.756Z,15.68
2022-09-18T15:31:08.800Z,15.71
2022-09-18T15:35:27.008Z,15.66
2022-09-18T15:39:34.595Z,15.62
2022-09-18T15:43:43.291Z,15.62
2022-09-18T15:47:45.296Z,15.66
2022-09-18T15:51:46.865Z,15.62
2022-09-18T15:56:00.841Z,15.59
2022-09-18T16:00:04.863Z,15.55
2022-09-18T16:04:27.033Z,15.52
2022-09-18T16:08:31.731Z,15.51
2022-09-18T16:12:39.702Z,15.51
2022-09-18T16:16:42.448Z,15.51
2022-09-18T16:21:01.693Z,15.49
2022-09-18T16:25:13.689Z,15.49
2022-09-18T16:29:20.896Z,15.48
2022-09-18T16:33:25.551Z,15.46
2022-09-18T16:37:28.597Z,15.44
2022-09-18T16:41:30.939Z,15.40
2022-09-18T16:45:32.498Z,15.38
2022-09-18T16:49:37.220Z,15.38
2022-09-18T16:53:38.959Z,15.34
2022-09-18T16:57:40.463Z,15.28
2022-09-18T17:02:00.457Z,15.23
2022-09-18T17:06:04.430Z,15.20
2022-09-18T17:10:06.488Z,15.16
2022-09-18T17:14:08.759Z,15.15
2022-09-18T17:18:10.367Z,15.12
2022-09-18T17:22:11.960Z,15.07
2022-09-18T17:26:14.172Z,15.04
2022-09-18T17:30:15.787Z,15.01
2022-09-18T17:34:18.832Z,14.98
2022-09-18T17:38:20.312Z,14.95
2022-09-18T17:42:22.293Z,14.93
2022-09-18T17:46:23.935Z,14.90
2022-09-18T17:50:25.538Z,14.86
2022-09-18T17:54:27.816Z,14.86
2022-09-18T17:58:30.918Z,14.85
2022-09-18T18:02:32.601Z,14.82
2022-09-18T18:06:35.220Z,14.82
2022-09-18T18:10:36.895Z,14.78
2022-09-18T18:14:38.442Z,14.67
2022-09-18T18:18:40.768Z,14.60
2022-09-18T18:22:42.339Z,14.56
2022-09-18T18:26:45.327Z,14.48
2022-09-18T18:30:56.893Z,14.48
2022-09-18T18:34:58.592Z,14.46
2022-09-18T18:39:01.636Z,14.44
2022-09-18T18:43:04.078Z,14.42
2022-09-18T18:47:05.730Z,14.44
2022-09-18T18:51:10.302Z,14.41
2022-09-18T18:55:12.043Z,14.36
2022-09-18T18:59:15.908Z,14.31
2022-09-18T19:03:17.439Z,14.24
2022-09-18T19:07:18.959Z,14.21
2022-09-18T19:11:21.641Z,14.20
2022-09-18T19:15:24.824Z,14.12
2022-09-18T19:19:28.304Z,14.06
2022-09-18T19:23:29.882Z,14.08
2022-09-18T19:27:31.425Z,14.09
2022-09-18T19:31:34.930Z,14.09
2022-09-18T19:35:36.733Z,14.08
2022-09-18T19:39:38.259Z,14.08
2022-09-18T19:43:40.000Z,14.08
2022-09-18T19:47:46.441Z,14.06
2022-09-18T19:51:49.147Z,14.05
2022-09-18T19:55:50.696Z,14.04
2022-09-18T19:59:57.047Z,14.02
2022-09-18T20:03:58.753Z,13.99
2022-09-18T20:08:01.469Z,14.02
2022-09-18T20:12:04.051Z,14.01
2022-09-18T20:16:08.140Z,13.99
2022-09-18T20:20:14.460Z,13.94
2022-09-18T20:24:18.425Z,13.96
2022-09-18T20:28:21.941Z,13.99
2022-09-18T20:32:23.495Z,13.96
2022-09-18T20:36:26.205Z,13.99
2022-09-18T20:40:27.776Z,14.01
2022-09-18T20:44:29.734Z,14.01
2022-09-18T20:48:41.255Z,14.01
2022-09-18T20:52:43.572Z,13.94
2022-09-18T20:56:45.429Z,13.86
2022-09-18T21:00:47.911Z,13.73
2022-09-18T21:04:50.631Z,13.66
2022-09-18T21:08:54.589Z,13.59
2022-09-18T21:12:57.317Z,13.47
2022-09-18T21:16:58.799Z,13.32
2022-09-18T21:21:02.722Z,12.91
2022-09-18T21:25:04.523Z,12.36
2022-09-18T21:29:13.419Z,12.01
2022-09-18T21:33:16.003Z,11.79
2022-09-18T21:37:18.297Z,11.51
2022-09-18T21:41:21.980Z,11.31
2022-09-18T21:45:23.644Z,11.31
2022-09-18T21:49:25.487Z,11.38
2022-09-18T21:53:29.248Z,11.39
2022-09-18T21:57:30.801Z,11.46
2022-09-18T22:01:33.353Z,11.53
2022-09-18T22:05:35.833Z,11.51
2022-09-18T22:09:38.171Z,11.57
2022-09-18T22:13:39.732Z,11.63
2022-09-18T22:17:41.524Z,11.69
2022-09-18T22:21:46.410Z,11.62
2022-09-18T22:25:47.964Z,11.51
2022-09-18T22:29:50.166Z,11.56
2022-09-18T22:33:58.028Z,11.59
2022-09-18T22:38:00.078Z,11.41
2022-09-18T22:42:01.865Z,11.35
2022-09-18T22:46:12.114Z,11.21
2022-09-18T22:50:13.717Z,11.17
2022-09-18T22:54:16.701Z,11.13
2022-09-18T22:58:18.547Z,11.05
2022-09-18T23:02:23.241Z,11.05
2022-09-18T23:06:27.597Z,11.11
2022-09-18T23:10:29.109Z,11.08
2022-09-18T23:14:31.471Z,11.08
2022-09-18T23:18:33.622Z,11.05
2022-09-18T23:22:35.115Z,11.03
2022-09-18T23:26:41.973Z,11.01
2022-09-18T23:30:43.457Z,10.99
2022-09-18T23:34:44.955Z,10.95
2022-09-18T23:38:47.608Z,10.95
2022-09-18T23:42:49.117Z,10.88
2022-09-18T23:46:51.315Z,10.86
2022-09-18T23:50:53.708Z,10.83
2022-09-18T23:54:55.193Z,10.84
2022-09-18T23:58:59.380Z,10.83
